createdAt,value
2022-12-27T00:00:50.721Z,101335.75
2022-12-27T00:03:55.264Z,101344.78
2022-12-27T00:06:58.201Z,101345.00
2022-12-27T00:10:02.412Z,101340.19
2022-12-27T00:13:05.176Z,101353.59
2022-12-27T00:16:12.723Z,101355.66
2022-12-27T00:19:17.251Z,101364.44
2022-12-27T00:22:20.267Z,101359.22
2022-12-27T00:25:24.258Z,101365.06
2022-12-27T00:28:27.046Z,101364.41
2022-12-27T00:31:34.042Z,101367.97
2022-12-27T00:34:38.298Z,101362.50
2022-12-27T00:37:41.044Z,101379.69
2022-12-27T00:40:45.385Z,101363.94
2022-12-27T00:43:48.789Z,101369.13
2022-12-27T00:46:54.141Z,101370.44
2022-12-27T00:49:56.845Z,101368.75
2022-12-27T00:53:00.968Z,101374.16
2022-12-27T00:56:09.180Z,101375.56
2022-12-27T00:59:12.688Z,101372.47
2022-12-27T01:02:18.091Z,101383.72
2022-12-27T01:05:22.262Z,101384.34
2022-12-27T01:08:26.251Z,101396.41
2022-12-27T01:11:29.824Z,101397.88
2022-12-27T01:14:32.577Z,101397.41
2022-12-27T01:17:38.019Z,101409.97
2022-12-27T01:20:41.016Z,101413.72
2022-12-27T01:23:45.707Z,101417.88
2022-12-27T01:26:48.680Z,101429.53
2022-12-27T01:29:54.240Z,101434.19
2022-12-27T01:32:59.844Z,101432.34
2022-12-27T01:36:10.740Z,101440.88
2022-12-27T01:39:17.368Z,101439.19
2022-12-27T01:42:39.767Z,101440.22
2022-12-27T01:45:42.772Z,101438.09
2022-12-27T01:48:48.957Z,101447.25
2022-12-27T01:51:51.929Z,101441.44
2022-12-27T01:54:59.191Z,101445.75
2022-12-27T01:58:06.136Z,101448.94
2022-12-27T02:01:14.792Z,101450.19
2022-12-27T02:04:23.140Z,101448.34
2022-12-27T02:07:32.579Z,101446.91
2022-12-27T02:10:37.528Z,101455.84
2022-12-27T02:13:44.483Z,101455.78
2022-12-27T02:16:48.760Z,101455.28
2022-12-27T02:20:01.173Z,101462.03
2022-12-27T02:23:58.947Z,101464.03
2022-12-27T02:27:07.103Z,101472.25
2022-12-27T02:30:14.605Z,101471.53
2022-12-27T02:33:24.740Z,101474.88
2022-12-27T02:36:32.529Z,101479.22
2022-12-27T02:39:40.282Z,101478.69
2022-12-27T02:43:04.580Z,101487.41
2022-12-27T02:46:33.291Z,101477.56
2022-12-27T02:49:57.744Z,101493.00
2022-12-27T02:53:08.968Z,101487.69
2022-12-27T02:56:46.198Z,101481.09
2022-12-27T03:00:24.637Z,101498.16
2022-12-27T03:03:44.729Z,101516.69
2022-12-27T03:07:00.173Z,101502.22
2022-12-27T03:10:34.259Z,101508.31
2022-12-27T03:14:04.245Z,101510.09
2022-12-27T03:17:16.165Z,101510.34
2022-12-27T03:20:40.406Z,101515.53
2022-12-27T03:24:04.625Z,101517.50
2022-12-27T03:27:18.247Z,101514.88
2022-12-27T03:30:39.417Z,101515.97
2022-12-27T03:33:44.998Z,101520.84
2022-12-27T03:37:08.852Z,101516.38
2022-12-27T03:40:19.506Z,101518.53
2022-12-27T03:43:21.516Z,101534.31
2022-12-27T03:46:35.729Z,101535.94
2022-12-27T03:49:43.311Z,101534.78
2022-12-27T03:52:53.777Z,101535.31
2022-12-27T03:55:58.178Z,101529.78
2022-12-27T03:59:04.071Z,101532.59
2022-12-27T04:02:09.196Z,101520.69
2022-12-27T04:05:14.111Z,101530.72
2022-12-27T04:08:35.918Z,101520.41
2022-12-27T04:11:57.282Z,101527.81
2022-12-27T04:15:17.605Z,101534.47
2022-12-27T04:18:38.086Z,101534.28
2022-12-27T04:21:59.447Z,101528.16
2022-12-27T04:25:21.132Z,101522.47
2022-12-27T04:28:42.576Z,101535.94
2022-12-27T04:32:02.646Z,101529.19
2022-12-27T04:35:07.404Z,101528.00
2022-12-27T04:38:10.234Z,101528.44
2022-12-27T04:41:32.544Z,101532.66
2022-12-27T04:44:59.191Z,101534.41
2022-12-27T04:48:19.592Z,101537.22
2022-12-27T04:51:40.824Z,101550.81
2022-12-27T04:54:59.766Z,101546.16
2022-12-27T04:58:03.985Z,101544.94
2022-12-27T05:01:25.705Z,101543.06
2022-12-27T05:04:30.008Z,101534.91
2022-12-27T05:07:51.301Z,101536.41
2022-12-27T05:11:11.555Z,101533.97
2022-12-27T05:14:17.869Z,101543.69
2022-12-27T05:17:20.843Z,101538.84
2022-12-27T05:20:23.707Z,101536.28
2022-12-27T05:23:43.962Z,101547.41
2022-12-27T05:26:49.855Z,101550.34
2022-12-27T05:29:54.970Z,101543.84
2022-12-27T05:33:01.653Z,101553.06
2022-12-27T05:36:04.675Z,101551.72
2022-12-27T05:39:08.494Z,101562.38
2022-12-27T05:42:11.381Z,101552.38
2022-12-27T05:45:16.732Z,101568.22
2022-12-27T05:48:19.714Z,101573.59
2022-12-27T05:51:23.894Z,101567.75
2022-12-27T05:54:27.818Z,101568.31
2022-12-27T05:57:31.038Z,101568.41
2022-12-27T06:00:36.666Z,101571.44
2022-12-27T06:03:39.905Z,101583.75
2022-12-27T06:06:43.070Z,101590.56
2022-12-27T06:09:45.916Z,101589.34
2022-12-27T06:12:48.736Z,101583.63
2022-12-27T06:15:53.895Z,101587.06
2022-12-27T06:18:57.996Z,101588.28
2022-12-27T06:22:00.937Z,101592.50
2022-12-27T06:25:03.891Z,101594.47
2022-12-27T06:28:06.828Z,101601.47
2022-12-27T06:31:12.514Z,101601.50
2022-12-27T06:34:15.634Z,101605.22
2022-12-27T06:37:19.774Z,101608.88
2022-12-27T06:40:23.866Z,101594.91
2022-12-27T06:43:27.076Z,101608.72
2022-12-27T06:46:31.625Z,101615.84
2022-12-27T06:49:34.466Z,101606.81
2022-12-27T06:52:38.565Z,101614.44
2022-12-27T06:55:41.394Z,101617.47
2022-12-27T06:58:44.612Z,101617.28
2022-12-27T07:01:50.083Z,101618.06
2022-12-27T07:04:53.393Z,101615.84
2022-12-27T07:07:57.202Z,101628.88
2022-12-27T07:11:02.865Z,101619.81
2022-12-27T07:14:09.565Z,101638.56
2022-12-27T07:17:14.770Z,101636.13
2022-12-27T07:20:18.712Z,101651.09
2022-12-27T07:23:21.448Z,101646.59
2022-12-27T07:26:27.751Z,101641.50
2022-12-27T07:29:30.734Z,101653.13
2022-12-27T07:32:35.848Z,101660.84
2022-12-27T07:35:44.963Z,101672.78
2022-12-27T07:38:48.706Z,101671.63
2022-12-27T07:41:51.543Z,101676.44
2022-12-27T07:44:54.374Z,101675.50
2022-12-27T07:47:59.471Z,101675.72
2022-12-27T07:51:02.796Z,101690.47
2022-12-27T07:54:06.979Z,101688.38
2022-12-27T07:57:10.636Z,101690.84
2022-12-27T08:00:14.540Z,101696.97
2022-12-27T08:03:20.416Z,101690.91
2022-12-27T08:06:27.041Z,101700.03
2022-12-27T08:09:32.485Z,101699.66
2022-12-27T08:12:36.143Z,101701.44
2022-12-27T08:15:40.955Z,101699.06
2022-12-27T08:18:46.113Z,101709.09
2022-12-27T08:21:48.832Z,101710.97
2022-12-27T08:24:52.646Z,101713.28
2022-12-27T08:28:04.731Z,101715.22
2022-12-27T08:31:08.992Z,101721.06
2022-12-27T08:34:14.074Z,101718.22
2022-12-27T08:37:17.981Z,101719.25
2022-12-27T08:40:21.033Z,101719.50
2022-12-27T08:43:24.709Z,101719.41
2022-12-27T08:46:27.431Z,101729.03
2022-12-27T08:49:32.565Z,101722.38
2022-12-27T08:52:36.280Z,101721.44
2022-12-27T08:55:38.993Z,101714.84
2022-12-27T08:58:42.630Z,101724.25
2022-12-27T09:01:45.515Z,101722.63
2022-12-27T09:04:50.741Z,101730.00
2022-12-27T09:07:54.458Z,101727.13
2022-12-27T09:10:57.482Z,101731.28
2022-12-27T09:14:03.090Z,101733.69
2022-12-27T09:17:07.106Z,101736.44
2022-12-27T09:20:14.179Z,101730.56
2022-12-27T09:23:18.001Z,101733.16
2022-12-27T09:26:22.570Z,101725.97
2022-12-27T09:29:26.467Z,101727.31
2022-12-27T09:32:29.243Z,101733.38
2022-12-27T09:35:38.443Z,101744.88
2022-12-27T09:38:43.216Z,101748.75
2022-12-27T09:45:23.775Z,101752.69
2022-12-27T09:48:33.714Z,101747.84
2022-12-27T09:51:48.617Z,101748.91
2022-12-27T09:55:05.056Z,101755.81
2022-12-27T09:58:24.884Z,101748.44
2022-12-27T10:01:36.184Z,101759.88
2022-12-27T10:05:17.903Z,101755.03
2022-12-27T10:08:21.723Z,101749.38
2022-12-27T10:11:41.233Z,101751.69
2022-12-27T10:15:00.188Z,101749.94
2022-12-27T10:18:16.274Z,101747.06
2022-12-27T10:21:23.861Z,101752.78
2022-12-27T10:24:36.917Z,101753.34
2022-12-27T10:27:42.346Z,101747.91
2022-12-27T10:30:45.705Z,101755.50
2022-12-27T10:37:17.598Z,101774.78
2022-12-27T10:40:29.818Z,101775.59
2022-12-27T10:43:41.251Z,101775.34
2022-12-27T10:46:50.541Z,101787.53
2022-12-27T10:50:06.882Z,101792.72
2022-12-27T10:53:35.500Z,101787.84
2022-12-27T10:56:41.535Z,101796.91
2022-12-27T10:59:45.787Z,101799.31
2022-12-27T11:02:53.542Z,101801.00
2022-12-27T11:06:03.389Z,101801.78
2022-12-27T11:09:30.864Z,101790.13
2022-12-27T11:12:36.149Z,101814.84
2022-12-27T11:15:42.935Z,101806.94
2022-12-27T11:18:49.223Z,101807.13
2022-12-27T11:21:54.524Z,101814.00
2022-12-27T11:25:00.899Z,101803.09
2022-12-27T11:28:17.592Z,101808.41
2022-12-27T11:34:53.665Z,101822.22
2022-12-27T11:37:58.210Z,101827.75
2022-12-27T11:41:06.685Z,101818.88
2022-12-27T11:44:20.903Z,101829.78
2022-12-27T11:51:05.076Z,101833.34
2022-12-27T11:54:21.883Z,101834.44
2022-12-27T11:57:40.800Z,101834.25
2022-12-27T12:00:59.156Z,101832.78
2022-12-27T12:04:42.915Z,101824.59
2022-12-27T12:08:03.716Z,101826.47
2022-12-27T12:11:16.704Z,101833.78
2022-12-27T12:14:58.867Z,101843.66
2022-12-27T12:18:28.730Z,101832.56
2022-12-27T12:21:37.021Z,101843.09
2022-12-27T12:25:37.446Z,101837.53
2022-12-27T12:28:59.879Z,101838.44
2022-12-27T12:32:18.559Z,101849.16
2022-12-27T12:35:51.799Z,101844.53
2022-12-27T12:39:03.827Z,101849.56
2022-12-27T12:42:20.349Z,101828.38
2022-12-27T12:45:39.959Z,101849.13
2022-12-27T12:49:11.619Z,101832.72
2022-12-27T12:52:32.421Z,101843.66
2022-12-27T12:55:48.172Z,101857.88
2022-12-27T12:59:03.863Z,101867.31
2022-12-27T13:02:42.122Z,101860.78
2022-12-27T13:05:52.383Z,101868.94
2022-12-27T13:09:04.879Z,101877.97
2022-12-27T13:12:14.554Z,101866.69
2022-12-27T13:15:30.643Z,101878.66
2022-12-27T13:18:44.307Z,101864.53
2022-12-27T13:21:59.648Z,101866.03
2022-12-27T13:25:16.543Z,101871.69
2022-12-27T13:28:37.205Z,101872.97
2022-12-27T13:31:48.221Z,101864.75
2022-12-27T13:35:06.418Z,101867.13
2022-12-27T13:38:20.562Z,101871.69
2022-12-27T13:41:40.365Z,101871.22
2022-12-27T13:44:55.564Z,101866.22
2022-12-27T13:48:10.669Z,101870.44
2022-12-27T13:51:38.428Z,101872.34
2022-12-27T13:55:22.043Z,101878.56
2022-12-27T13:59:06.923Z,101876.94
2022-12-27T14:02:30.607Z,101884.75
2022-12-27T14:06:19.050Z,101887.25
2022-12-27T14:09:45.478Z,101888.88
2022-12-27T14:13:09.369Z,101896.50
2022-12-27T14:16:36.175Z,101898.78
2022-12-27T14:20:04.719Z,101901.47
2022-12-27T14:23:35.253Z,101912.66
2022-12-27T14:26:59.547Z,101917.41
2022-12-27T14:30:39.584Z,101914.91
2022-12-27T14:34:18.146Z,101925.19
2022-12-27T14:37:45.258Z,101918.84
2022-12-27T14:41:31.432Z,101923.56
2022-12-27T14:45:08.186Z,101925.44
2022-12-27T14:48:41.660Z,101925.72
2022-12-27T14:52:25.600Z,101920.38
2022-12-27T14:55:40.710Z,101921.84
2022-12-27T14:59:04.919Z,101926.91
2022-12-27T15:02:27.651Z,101936.63
2022-12-27T15:09:13.376Z,101953.75
2022-12-27T15:12:27.983Z,101949.78
2022-12-27T15:15:47.006Z,101952.69
2022-12-27T15:19:18.176Z,101965.84
2022-12-27T15:22:30.303Z,101961.00
2022-12-27T15:25:48.700Z,101959.16
2022-12-27T15:29:08.839Z,101959.31
2022-12-27T15:32:24.824Z,101950.06
2022-12-27T15:35:41.437Z,101946.59
2022-12-27T15:38:54.008Z,101942.09
2022-12-27T15:42:09.744Z,101941.56
2022-12-27T15:45:30.304Z,101943.06
2022-12-27T15:49:08.580Z,101944.84
2022-12-27T15:52:20.703Z,101941.00
2022-12-27T15:59:54.177Z,101933.88
2022-12-27T16:03:00.026Z,101936.44
2022-12-27T16:06:05.482Z,101937.00
2022-12-27T16:09:36.674Z,101928.66
2022-12-27T16:12:44.024Z,101931.56
2022-12-27T16:15:55.155Z,101927.66
2022-12-27T16:19:13.926Z,101937.56
2022-12-27T16:22:27.556Z,101939.16
2022-12-27T16:25:34.683Z,101936.00
2022-12-27T16:28:45.136Z,101940.84
2022-12-27T16:31:50.956Z,101942.34
2022-12-27T16:34:59.021Z,101943.28
2022-12-27T16:38:04.486Z,101944.69
2022-12-27T16:41:17.059Z,101945.06
2022-12-27T16:44:36.249Z,101945.06
2022-12-27T16:48:18.614Z,101940.84
2022-12-27T16:51:33.014Z,101942.63
2022-12-27T16:54:50.797Z,101945.25
2022-12-27T16:58:14.267Z,101935.31
2022-12-27T17:01:57.121Z,101943.84
2022-12-27T17:05:01.466Z,101947.50
2022-12-27T17:08:17.893Z,101944.78
2022-12-27T17:11:27.007Z,101946.81
2022-12-27T17:14:37.015Z,101941.97
2022-12-27T17:17:40.087Z,101931.75
2022-12-27T17:20:46.468Z,101934.94
2022-12-27T17:23:54.584Z,101934.66
2022-12-27T17:27:12.809Z,101945.31
2022-12-27T17:30:24.731Z,101952.66
2022-12-27T17:33:41.157Z,101946.34
2022-12-27T17:36:57.326Z,101958.97
2022-12-27T17:40:22.000Z,101950.09
2022-12-27T17:43:54.075Z,101952.59
2022-12-27T17:50:41.557Z,101948.03
2022-12-27T17:54:07.399Z,101948.41
2022-12-27T17:57:32.757Z,101946.41
2022-12-27T18:00:39.242Z,101942.03
2022-12-27T18:03:47.212Z,101938.88
2022-12-27T18:06:50.755Z,101942.34
2022-12-27T18:09:57.952Z,101949.78
2022-12-27T18:13:06.830Z,101940.72
2022-12-27T18:16:17.769Z,101944.53
2022-12-27T18:19:22.665Z,101947.16
2022-12-27T18:22:25.853Z,101940.41
2022-12-27T18:25:32.378Z,101952.63
2022-12-27T18:28:37.845Z,101938.94
2022-12-27T18:31:49.500Z,101931.28
2022-12-27T18:34:57.645Z,101929.94
2022-12-27T18:38:01.740Z,101930.56
2022-12-27T18:41:08.437Z,101928.53
2022-12-27T18:44:26.541Z,101927.00
2022-12-27T18:47:30.205Z,101933.03
2022-12-27T18:50:36.641Z,101926.34
2022-12-27T18:53:40.565Z,101929.00
2022-12-27T18:56:45.285Z,101927.97
2022-12-27T19:00:01.840Z,101928.78
2022-12-27T19:03:16.532Z,101920.44
2022-12-27T19:06:20.683Z,101927.31
2022-12-27T19:09:26.432Z,101931.06
2022-12-27T19:12:35.306Z,101927.31
2022-12-27T19:15:44.735Z,101916.47
2022-12-27T19:18:52.218Z,101919.84
2022-12-27T19:21:56.596Z,101924.78
2022-12-27T19:25:01.478Z,101913.66
2022-12-27T19:28:08.560Z,101914.91
2022-12-27T19:31:19.417Z,101919.41
2022-12-27T19:34:24.627Z,101923.53
2022-12-27T19:37:29.020Z,101926.38
2022-12-27T19:43:55.659Z,101914.34
2022-12-27T19:46:59.713Z,101913.03
2022-12-27T19:50:03.695Z,101908.97
2022-12-27T19:53:06.480Z,101912.72
2022-12-27T19:56:11.405Z,101901.41
2022-12-27T19:59:17.052Z,101906.81
2022-12-27T20:02:23.523Z,101911.94
2022-12-27T20:06:13.724Z,101913.44
2022-12-27T20:08:53.067Z,101907.00
2022-12-27T20:11:57.059Z,101902.25
2022-12-27T20:15:01.046Z,101902.56
2022-12-27T20:18:05.473Z,101899.13
2022-12-27T20:24:31.521Z,101895.66
2022-12-27T20:27:35.324Z,101898.50
2022-12-27T20:30:39.683Z,101884.41
2022-12-27T20:33:44.980Z,101888.25
2022-12-27T20:36:48.721Z,101889.09
2022-12-27T20:39:52.027Z,101883.44
2022-12-27T20:42:56.960Z,101887.09
2022-12-27T20:46:06.240Z,101890.78
2022-12-27T20:49:10.382Z,101883.47
2022-12-27T20:52:14.156Z,101881.22
2022-12-27T20:55:16.867Z,101878.31
2022-12-27T20:58:20.698Z,101879.19
2022-12-27T21:01:26.817Z,101882.00
2022-12-27T21:04:32.139Z,101880.69
2022-12-27T21:07:35.971Z,101876.66
2022-12-27T21:10:38.671Z,101867.69
2022-12-27T21:13:44.096Z,101864.31
2022-12-27T21:16:47.909Z,101861.41
2022-12-27T21:19:52.096Z,101847.72
2022-12-27T21:22:55.854Z,101854.97
2022-12-27T21:26:04.875Z,101854.75
2022-12-27T21:29:09.320Z,101850.44
2022-12-27T21:32:13.183Z,101848.84
2022-12-27T21:35:17.415Z,101842.94
2022-12-27T21:38:21.276Z,101845.25
2022-12-27T21:41:27.079Z,101848.06
2022-12-27T21:44:30.950Z,101847.69
2022-12-27T21:47:34.711Z,101852.28
2022-12-27T21:50:38.966Z,101855.94
2022-12-27T21:53:43.127Z,101847.84
2022-12-27T21:56:45.857Z,101842.41
2022-12-27T21:59:49.907Z,101841.28
2022-12-27T22:02:53.891Z,101823.72
2022-12-27T22:05:58.136Z,101826.34
2022-12-27T22:09:03.337Z,101818.56
2022-12-27T22:12:06.454Z,101824.47
2022-12-27T22:15:11.286Z,101817.97
2022-12-27T22:18:15.061Z,101812.53
2022-12-27T22:21:22.482Z,101808.13
2022-12-27T22:24:26.340Z,101798.31
2022-12-27T22:27:29.001Z,101792.66
2022-12-27T22:30:32.718Z,101781.50
2022-12-27T22:33:37.390Z,101785.22
2022-12-27T22:36:41.727Z,101784.50
2022-12-27T22:39:45.482Z,101779.38
2022-12-27T22:42:49.235Z,101782.94
2022-12-27T22:45:53.936Z,101786.94
2022-12-27T22:48:59.449Z,101784.81
2022-12-27T22:52:03.521Z,101783.44
2022-12-27T22:55:08.545Z,101783.72
2022-12-27T22:58:11.250Z,101767.66
2022-12-27T23:01:16.496Z,101769.16
2022-12-27T23:04:20.392Z,101750.28
2022-12-27T23:08:05.020Z,101753.75
2022-12-27T23:10:48.385Z,101743.84
2022-12-27T23:13:57.731Z,101758.88
2022-12-27T23:17:01.604Z,101763.13
2022-12-27T23:23:28.576Z,101745.75
2022-12-27T23:26:32.371Z,101751.47
2022-12-27T23:29:36.168Z,101741.16
2022-12-27T23:32:39.067Z,101743.28
2022-12-27T23:35:42.851Z,101731.13
2022-12-27T23:38:47.226Z,101726.50
2022-12-27T23:41:49.977Z,101723.00
2022-12-27T23:44:53.931Z,101716.84
2022-12-27T23:47:56.680Z,101706.09
2022-12-27T23:51:00.606Z,101707.63
2022-12-27T23:54:04.821Z,101704.25
2022-12-27T23:57:22.296Z,101696.97
